Time;durP1;ratioP1;P1;durP2;ratioP2;P2;SDS_P1;SDS_P2;PMS_P1;PMS_P2;Temp;Humidity;BMP_temperature;BMP_pressure;BME280_temperature;BME280_humidity;BME280_pressure;Samples;Min_cycle;Max_cycle;Signal;HPM_P1;HPM_P2
2024/04/10 00:01:37;;;;;;;10.00;7.70;;;;;;;14.83;68.56;100477.54;87674;274;136118;-77
2024/04/10 00:03:38;;;;;;;6.60;6.10;;;;;;;14.76;68.78;100476.73;87400;279;22579;-81
2024/04/10 00:05:39;;;;;;;7.90;6.90;;;;;;;14.73;68.66;100481.98;86960;281;136107;-75
2024/04/10 00:07:39;;;;;;;9.50;6.60;;;;;;;14.72;69.05;100480.05;86949;275;22578;-75
2024/04/10 00:09:41;;;;;;;6.70;5.90;;;;;;;14.70;69.04;100481.55;86934;270;135869;-74
2024/04/10 00:11:42;;;;;;;9.90;7.50;;;;;;;14.68;69.25;100483.13;86893;275;22516;-80
2024/04/10 00:13:42;;;;;;;7.40;6.70;;;;;;;14.65;70.34;100484.54;87026;270;135599;-78
2024/04/10 00:15:43;;;;;;;9.50;7.40;;;;;;;14.63;70.58;100485.62;87087;270;25341;-82
2024/04/10 00:17:44;;;;;;;12.90;7.60;;;;;;;14.59;70.84;100484.85;87052;281;136033;-81
2024/04/10 00:19:51;;;;;;;10.50;7.40;;;;;;;14.53;71.43;100484.12;87224;270;22572;-76
2024/04/10 00:21:54;;;;;;;9.00;7.50;;;;;;;14.48;71.89;100488.39;87327;270;136634;-80
2024/04/10 00:23:56;;;;;;;8.50;7.40;;;;;;;14.44;72.46;100491.62;87024;265;22553;-75
2024/04/10 00:25:58;;;;;;;8.70;7.80;;;;;;;14.39;72.83;100490.39;87162;274;135836;-77
2024/04/10 00:27:59;;;;;;;8.70;7.30;;;;;;;14.33;73.26;100492.42;87441;274;22565;-70
2024/04/10 00:30:00;;;;;;;7.70;7.00;;;;;;;14.28;73.62;100491.36;87217;274;135527;-79
2024/04/10 00:32:01;;;;;;;8.50;7.20;;;;;;;14.21;73.72;100488.52;87313;274;22641;-76
2024/04/10 00:34:02;;;;;;;9.10;8.10;;;;;;;14.14;73.55;100487.63;87966;274;135723;-76
2024/04/10 00:36:03;;;;;;;10.90;8.00;;;;;;;14.11;74.10;100490.35;87314;270;22699;-84
2024/04/10 00:38:04;;;;;;;9.60;7.80;;;;;;;14.08;74.40;100487.77;87259;265;22566;-83
2024/04/10 00:40:05;;;;;;;10.70;8.40;;;;;;;14.05;75.10;100489.98;87618;269;135714;-84
2024/04/10 00:42:05;;;;;;;9.60;7.80;;;;;;;14.03;75.50;100488.34;87214;277;26913;-72
2024/04/10 00:44:07;;;;;;;7.90;7.20;;;;;;;14.00;75.63;100490.23;87132;269;135817;-81
2024/04/10 00:46:15;;;;;;;8.70;7.80;;;;;;;13.98;76.40;100487.20;87271;270;22606;-77
2024/04/10 00:48:16;;;;;;;10.90;8.50;;;;;;;13.94;76.72;100485.02;87096;266;135671;-78
2024/04/10 00:50:16;;;;;;;11.10;7.90;;;;;;;13.91;77.18;100488.72;87128;270;23746;-74
2024/04/10 00:52:18;;;;;;;9.20;8.10;;;;;;;13.87;78.24;100486.16;87162;270;136663;-75
2024/04/10 00:54:19;;;;;;;10.00;7.60;;;;;;;13.82;78.89;100488.92;87352;270;22571;-84
2024/04/10 00:56:20;;;;;;;9.80;8.10;;;;;;;13.77;79.32;100489.38;87251;278;136117;-75
2024/04/10 00:58:21;;;;;;;10.80;7.40;;;;;;;13.74;78.60;100492.14;87955;269;22547;-76
2024/04/10 01:00:21;;;;;;;9.00;8.10;;;;;;;13.73;78.53;100497.70;87778;267;136347;-74
2024/04/10 01:02:23;;;;;;;13.00;7.90;;;;;;;13.71;78.43;100500.77;88196;269;22568;-77
2024/04/10 01:04:24;;;;;;;13.10;9.20;;;;;;;13.70;79.11;100502.36;88283;270;136017;-72
2024/04/10 01:06:29;;;;;;;9.10;8.20;;;;;;;13.69;79.54;100501.66;87699;266;22677;-75
2024/04/10 01:08:31;;;;;;;12.00;8.10;;;;;;;13.65;79.56;100500.13;87787;270;136680;-74
2024/04/10 01:10:33;;;;;;;7.90;7.00;;;;;;;13.63;79.45;100496.99;87454;266;22590;-76
2024/04/10 01:12:38;;;;;;;11.70;8.30;;;;;;;13.62;79.61;100496.58;87462;270;135956;-74
2024/04/10 01:14:39;;;;;;;;;;;;;;;13.61;79.82;100499.23;87263;270;22551;-71
2024/04/10 01:16:39;;;;;;;9.90;8.20;;;;;;;13.59;80.57;100494.18;87326;274;122484;-71
2024/04/10 01:18:40;;;;;;;9.60;7.80;;;;;;;13.57;80.68;100497.84;87316;271;25117;-71
2024/04/10 01:20:41;;;;;;;9.90;6.90;;;;;;;13.55;80.47;100497.52;87244;270;136031;-72
2024/04/10 01:22:41;;;;;;;9.10;6.70;;;;;;;13.54;80.10;100500.89;87358;274;24027;-72
2024/04/10 01:24:42;;;;;;;11.60;7.90;;;;;;;13.54;79.78;100500.73;87097;270;136717;-78
2024/04/10 01:26:43;;;;;;;7.90;7.10;;;;;;;13.54;79.92;100497.68;87074;279;24014;-73
2024/04/10 01:28:43;;;;;;;8.00;7.20;;;;;;;13.53;79.60;100496.02;87202;270;135689;-77
2024/04/10 01:30:44;;;;;;;7.80;6.90;;;;;;;13.53;79.98;100501.39;87303;273;23007;-70
2024/04/10 01:32:45;;;;;;;10.50;7.60;;;;;;;13.53;79.51;100500.69;87112;270;135978;-71
2024/04/10 01:34:46;;;;;;;9.60;7.60;;;;;;;13.54;79.43;100501.85;87243;266;24160;-78
2024/04/10 01:36:46;;;;;;;10.70;8.10;;;;;;;13.53;79.73;100500.03;87402;271;136066;-73
2024/04/10 01:38:47;;;;;;;7.50;6.70;;;;;;;13.53;79.38;100502.71;87219;278;24069;-73
2024/04/10 01:40:48;;;;;;;7.90;7.00;;;;;;;13.52;79.39;100504.59;87257;270;136397;-69
2024/04/10 01:42:49;;;;;;;8.80;7.30;;;;;;;13.50;79.36;100507.14;87195;277;22560;-80
2024/04/10 01:44:49;;;;;;;10.30;7.30;;;;;;;13.49;79.74;100511.23;87543;270;136036;-75
2024/04/10 01:46:52;;;;;;;7.40;6.70;;;;;;;13.52;79.53;100512.30;87592;273;22559;-75
2024/04/10 01:48:53;;;;;;;9.50;6.90;;;;;;;13.53;79.42;100515.19;87139;278;135972;-73
2024/04/10 01:50:53;;;;;;;8.50;6.70;;;;;;;13.48;79.67;100518.55;87315;274;23788;-72
2024/04/10 01:52:54;;;;;;;7.90;7.10;;;;;;;13.48;80.01;100518.52;87179;273;137109;-72
2024/04/10 01:54:55;;;;;;;8.30;6.20;;;;;;;13.49;79.74;100518.56;87214;270;22559;-79
2024/04/10 01:56:55;;;;;;;8.60;6.30;;;;;;;13.51;79.49;100524.83;87093;267;137223;-70
2024/04/10 01:58:56;;;;;;;8.60;7.20;;;;;;;13.55;79.40;100523.47;87252;266;22585;-70
2024/04/10 02:00:57;;;;;;;9.70;7.00;;;;;;;13.56;79.05;100524.55;87129;269;136091;-77
2024/04/10 02:02:58;;;;;;;10.90;7.50;;;;;;;13.57;79.32;100523.77;87131;277;26198;-81
2024/04/10 02:04:59;;;;;;;10.90;6.80;;;;;;;13.56;79.89;100523.84;87142;274;136383;-83
2024/04/10 02:07:00;;;;;;;7.80;7.10;;;;;;;13.55;79.55;100529.32;87734;266;22557;-81
2024/04/10 02:09:00;;;;;;;7.80;6.80;;;;;;;13.54;79.58;100531.26;87324;266;137332;-73
2024/04/10 02:11:22;;;;;;;12.30;8.10;;;;;;;13.53;80.86;100526.20;87275;278;22532;-79
2024/04/10 02:13:21;;;;;;;9.70;7.60;;;;;;;13.50;80.77;100528.08;87171;278;136550;-79
2024/04/10 02:15:22;;;;;;;9.90;7.50;;;;;;;13.47;81.09;100526.46;87264;278;25147;-76
2024/04/10 02:17:23;;;;;;;6.90;6.20;;;;;;;13.45;81.29;100530.49;87178;279;136482;-75
2024/04/10 02:19:24;;;;;;;9.90;7.50;;;;;;;13.42;80.91;100527.23;87256;273;22599;-79
2024/04/10 02:21:25;;;;;;;8.60;6.90;;;;;;;13.40;81.65;100524.80;87297;270;136272;-75
2024/04/10 02:23:26;;;;;;;8.20;7.10;;;;;;;13.38;81.95;100530.28;87234;270;22561;-80
2024/04/10 02:25:29;;;;;;;11.20;7.00;;;;;;;13.35;82.03;100533.23;87068;278;136196;-77
2024/04/10 02:27:29;;;;;;;7.80;6.50;;;;;;;13.33;80.85;100533.30;87417;274;23681;-74
2024/04/10 02:29:30;;;;;;;7.00;5.50;;;;;;;13.33;80.18;100536.31;87075;270;136139;-75
2024/04/10 02:31:31;;;;;;;6.60;5.90;;;;;;;13.34;79.73;100531.34;87218;275;25118;-72
2024/04/10 02:33:38;;;;;;;6.10;5.60;;;;;;;13.36;79.48;100532.66;87040;270;136363;-72
2024/04/10 02:35:39;;;;;;;7.10;5.40;;;;;;;13.39;79.03;100529.16;87240;271;25220;-79
2024/04/10 02:37:40;;;;;;;6.40;5.50;;;;;;;13.41;78.17;100533.41;87280;273;137488;-75
2024/04/10 02:39:40;;;;;;;8.20;7.20;;;;;;;13.44;77.69;100532.89;87339;266;22607;-82
2024/04/10 02:41:41;;;;;;;7.50;6.20;;;;;;;13.45;78.72;100535.64;87440;273;136360;-87
2024/04/10 02:43:42;;;;;;;6.60;5.10;;;;;;;13.43;77.85;100534.41;87486;265;25079;-75
2024/04/10 02:45:59;;;;;;;7.10;6.00;;;;;;;13.46;78.01;100538.83;87283;274;137527;-84
2024/04/10 02:48:01;;;;;;;5.60;5.10;;;;;;;13.47;77.55;100536.31;87189;268;25248;-86
2024/04/10 02:50:04;;;;;;;8.10;5.50;;;;;;;13.48;77.26;100533.96;87005;266;22545;-76
2024/04/10 02:52:05;;;;;;;6.80;5.90;;;;;;;13.51;76.95;100533.65;87067;277;137074;-84
2024/04/10 02:54:05;;;;;;;8.30;7.20;;;;;;;13.54;77.34;100530.52;87307;271;22638;-82
2024/04/10 02:56:06;;;;;;;10.20;6.70;;;;;;;13.53;77.69;100529.23;87145;269;137693;-80
2024/04/10 02:58:07;;;;;;;12.50;6.80;;;;;;;13.51;77.42;100527.96;87274;278;24074;-84
2024/04/10 03:00:10;;;;;;;9.90;7.20;;;;;;;13.51;77.82;100528.09;87186;270;137531;-87
2024/04/10 03:02:11;;;;;;;15.50;7.30;;;;;;;13.51;78.10;100532.73;87480;270;22557;-85
2024/04/10 03:04:12;;;;;;;8.00;7.10;;;;;;;13.50;78.53;100534.84;87206;270;136873;-82
2024/04/10 03:06:13;;;;;;;13.30;6.80;;;;;;;13.49;78.71;100536.52;87393;266;24014;-83
2024/04/10 03:08:14;;;;;;;6.40;5.30;;;;;;;13.49;77.52;100533.84;86858;274;136773;-72
2024/04/10 03:10:17;;;;;;;15.20;6.30;;;;;;;13.51;77.76;100532.20;87278;273;22560;-85
2024/04/10 03:12:18;;;;;;;7.70;5.70;;;;;;;13.52;78.30;100533.31;87218;266;140582;-83
2024/04/10 03:14:18;;;;;;;8.50;7.10;;;;;;;13.52;78.21;100527.53;87289;278;22635;-79
2024/04/10 03:16:19;;;;;;;7.80;6.90;;;;;;;13.51;79.29;100524.00;87170;271;136561;-78
2024/04/10 03:18:20;;;;;;;10.10;7.10;;;;;;;13.48;80.02;100524.20;87235;278;22635;-70
2024/04/10 03:20:21;;;;;;;7.20;6.20;;;;;;;13.44;80.50;100524.37;87249;273;138094;-77
2024/04/10 03:22:21;;;;;;;7.10;6.40;;;;;;;13.40;80.71;100527.29;87502;269;22572;-84
2024/04/10 03:24:22;;;;;;;9.70;7.10;;;;;;;13.39;80.86;100529.86;87708;269;137003;-84
2024/04/10 03:26:23;;;;;;;8.90;6.80;;;;;;;13.35;81.08;100530.52;87876;270;23956;-77
2024/04/10 03:28:23;;;;;;;5.70;5.10;;;;;;;13.31;81.09;100533.38;87405;274;136448;-76
2024/04/10 03:30:24;;;;;;;6.70;6.00;;;;;;;13.24;81.02;100529.64;87372;270;22765;-81
2024/04/10 03:32:29;;;;;;;6.70;5.80;;;;;;;13.17;81.26;100529.02;87338;277;135699;-75
2024/04/10 03:34:30;;;;;;;7.30;4.80;;;;;;;13.17;81.16;100531.30;87458;269;22594;-78
2024/04/10 03:36:31;;;;;;;5.70;4.80;;;;;;;13.20;80.72;100537.02;87266;274;136355;-75
2024/04/10 03:38:31;;;;;;;8.70;4.60;;;;;;;13.27;80.02;100539.23;87437;272;24016;-78
2024/04/10 03:40:32;;;;;;;7.50;5.60;;;;;;;13.36;79.16;100538.68;87497;269;136606;-78
2024/04/10 03:42:41;;;;;;;4.30;4.00;;;;;;;13.47;78.96;100542.00;87484;273;22718;-80
2024/04/10 03:44:42;;;;;;;6.70;4.60;;;;;;;13.60;78.01;100543.02;87218;272;137165;-80
2024/04/10 03:46:43;;;;;;;7.90;4.40;;;;;;;13.75;77.66;100544.19;87596;274;22574;-78
2024/04/10 03:48:47;;;;;;;5.30;4.40;;;;;;;13.94;77.20;100546.98;87467;278;137073;-79
2024/04/10 03:50:48;;;;;;;12.20;3.70;;;;;;;14.19;75.82;100549.70;87427;270;22976;-84
2024/04/10 03:52:48;;;;;;;6.70;3.50;;;;;;;14.53;74.55;100557.13;87438;270;136063;-81
2024/04/10 03:54:51;;;;;;;5.10;3.70;;;;;;;14.94;72.26;100556.18;87445;262;23978;-75
2024/04/10 03:56:53;;;;;;;9.30;3.80;;;;;;;15.41;70.60;100559.86;87094;271;136593;-74
2024/04/10 03:58:54;;;;;;;6.00;4.50;;;;;;;15.88;70.48;100553.20;87391;270;22589;-73
2024/04/10 04:00:55;;;;;;;9.10;3.90;;;;;;;16.32;68.09;100556.27;87316;266;136182;-81
2024/04/10 04:02:58;;;;;;;9.80;4.10;;;;;;;16.78;66.00;100552.48;87510;269;22577;-79
2024/04/10 04:05:00;;;;;;;9.30;4.20;;;;;;;17.25;64.51;100557.77;87332;270;136245;-79
2024/04/10 04:07:01;;;;;;;4.00;3.60;;;;;;;17.68;63.36;100555.48;87370;271;22581;-77
2024/04/10 04:09:02;;;;;;;5.50;4.10;;;;;;;18.13;62.13;100553.44;87231;270;136387;-80
2024/04/10 04:11:06;;;;;;;5.60;3.80;;;;;;;18.55;60.32;100558.73;87655;269;25032;-79
2024/04/10 04:13:07;;;;;;;4.10;3.70;;;;;;;18.98;58.60;100557.52;87325;274;136324;-83
2024/04/10 04:15:08;;;;;;;5.60;4.10;;;;;;;19.44;57.18;100558.02;87590;269;24155;-84
2024/04/10 04:17:09;;;;;;;7.30;4.50;;;;;;;19.86;55.38;100555.02;87625;278;136268;-81
2024/04/10 04:19:10;;;;;;;4.60;4.10;;;;;;;20.24;53.78;100555.63;87484;271;23943;-80
2024/04/10 04:21:11;;;;;;;6.40;3.90;;;;;;;20.64;52.95;100560.17;87256;274;138156;-85
2024/04/10 04:23:12;;;;;;;5.10;4.10;;;;;;;21.04;51.25;100563.80;87547;266;22557;-77
2024/04/10 04:25:12;;;;;;;5.50;4.30;;;;;;;21.44;49.97;100564.36;88394;270;135677;-76
2024/04/10 04:27:14;;;;;;;7.60;4.20;;;;;;;21.86;48.33;100566.03;89953;268;22679;-71
2024/04/10 04:29:14;;;;;;;10.00;4.60;;;;;;;22.23;48.23;100569.17;88902;265;136239;-73
2024/04/10 04:31:15;;;;;;;10.60;4.40;;;;;;;22.57;47.76;100570.62;89107;265;23726;-72
2024/04/10 04:33:18;;;;;;;12.60;5.10;;;;;;;22.87;46.73;100571.80;87979;263;136569;-75
2024/04/10 04:35:19;;;;;;;13.10;6.00;;;;;;;23.14;46.14;100569.60;87607;270;22616;-71
2024/04/10 04:37:20;;;;;;;19.90;6.00;;;;;;;23.41;45.22;100572.67;87317;275;137218;-73
2024/04/10 04:39:21;;;;;;;21.60;8.10;;;;;;;23.70;44.16;100573.40;87346;278;23904;-72
2024/04/10 04:41:22;;;;;;;24.40;8.50;;;;;;;23.99;44.10;100576.50;87218;278;136550;-75
2024/04/10 04:43:23;;;;;;;13.60;7.30;;;;;;;24.22;42.23;100572.29;87288;274;22596;-73
2024/04/10 04:45:24;;;;;;;12.80;8.40;;;;;;;24.36;41.07;100574.11;87205;274;136248;-75
2024/04/10 04:47:28;;;;;;;19.40;8.30;;;;;;;24.48;40.47;100573.52;87242;263;22545;-68
2024/04/10 04:49:28;;;;;;;10.60;6.80;;;;;;;24.57;39.84;100573.63;87344;274;135972;-72
2024/04/10 04:51:29;;;;;;;10.50;8.00;;;;;;;24.72;39.22;100571.45;87207;272;25168;-71
2024/04/10 04:53:30;;;;;;;13.10;8.00;;;;;;;24.92;39.43;100571.66;87160;273;136204;-76
2024/04/10 04:55:31;;;;;;;18.40;8.40;;;;;;;25.09;38.74;100571.38;87281;270;26195;-75
2024/04/10 04:57:31;;;;;;;11.40;8.20;;;;;;;25.25;38.57;100572.95;87210;273;136588;-73
2024/04/10 04:59:32;;;;;;;11.80;8.60;;;;;;;25.37;38.09;100571.15;87272;269;22563;-75
2024/04/10 05:01:33;;;;;;;24.50;9.90;;;;;;;25.48;37.18;100579.59;87313;265;135997;-75
2024/04/10 05:06:10;;;;;;;15.10;9.70;;;;;;;25.68;36.61;100580.29;87339;278;22621;-75
2024/04/10 05:08:11;;;;;;;17.10;9.90;;;;;;;25.83;36.12;100580.52;87129;275;138048;-77
2024/04/10 05:10:13;;;;;;;14.40;10.00;;;;;;;26.01;35.68;100581.21;87576;268;22551;-80
2024/04/10 05:12:14;;;;;;;12.40;9.10;;;;;;;26.19;35.47;100583.26;87739;267;136167;-71
2024/04/10 05:14:15;;;;;;;11.00;8.90;;;;;;;26.31;35.43;100585.60;87266;265;25184;-73
2024/04/10 05:16:16;;;;;;;20.70;9.60;;;;;;;26.42;34.95;100591.84;87049;277;136299;-67
2024/04/10 05:18:16;;;;;;;14.00;9.80;;;;;;;26.55;34.53;100595.75;87330;269;22568;-74
2024/04/10 05:20:17;;;;;;;19.30;10.60;;;;;;;26.64;34.67;100594.05;87317;265;136469;-75
2024/04/10 05:22:19;;;;;;;17.40;10.20;;;;;;;26.74;34.23;100594.66;87537;266;22649;-77
2024/04/10 05:24:23;;;;;;;16.00;11.00;;;;;;;26.80;33.97;100593.21;87374;270;136511;-71
2024/04/10 05:26:24;;;;;;;13.70;9.70;;;;;;;26.81;34.00;100592.92;87246;270;22638;-71
2024/04/10 05:28:25;;;;;;;28.70;9.90;;;;;;;26.86;33.69;100595.49;87144;277;136567;-67
2024/04/10 05:30:26;;;;;;;17.80;10.00;;;;;;;26.90;33.52;100599.44;87302;270;23997;-72
2024/04/10 05:32:27;;;;;;;15.40;9.00;;;;;;;26.95;33.29;100600.21;87134;270;137654;-78
2024/04/10 05:34:28;;;;;;;18.70;9.60;;;;;;;27.00;33.28;100603.42;87257;278;25319;-72
2024/04/10 05:36:29;;;;;;;15.60;9.20;;;;;;;27.04;33.16;100603.70;87446;274;136302;-75
2024/04/10 05:38:30;;;;;;;13.50;8.90;;;;;;;27.09;32.85;100603.55;87322;270;22564;-69
2024/04/10 05:40:31;;;;;;;20.40;9.20;;;;;;;27.12;32.90;100599.23;87112;269;137775;-69
2024/04/10 05:42:38;;;;;;;20.10;9.10;;;;;;;27.18;32.78;100603.76;87308;271;22642;-75
2024/04/10 05:44:39;;;;;;;16.60;9.10;;;;;;;27.23;32.53;100606.48;87336;270;136658;-72
2024/04/10 05:46:40;;;;;;;11.50;8.70;;;;;;;27.30;32.59;100610.86;87149;279;22578;-74
2024/04/10 05:48:40;;;;;;;16.30;8.50;;;;;;;27.38;32.32;100613.48;87088;278;139033;-71
2024/04/10 05:50:41;;;;;;;13.50;8.60;;;;;;;27.50;32.41;100618.36;87217;266;22562;-73
2024/04/10 05:52:43;;;;;;;16.20;7.30;;;;;;;27.60;32.22;100613.45;87128;261;137108;-75
2024/04/10 05:54:51;;;;;;;11.90;8.10;;;;;;;27.69;31.72;100619.50;87421;265;22564;-70
2024/04/10 05:56:51;;;;;;;11.10;7.70;;;;;;;27.77;31.37;100619.39;87136;276;138756;-72
2024/04/10 05:58:53;;;;;;;13.70;7.50;;;;;;;27.84;31.15;100622.52;87273;270;22587;-71
2024/04/10 06:00:53;;;;;;;10.70;7.50;;;;;;;27.94;31.25;100623.86;87033;275;137448;-72
2024/04/10 06:02:54;;;;;;;11.80;8.30;;;;;;;28.02;31.02;100623.08;87220;270;22557;-72
2024/04/10 06:04:55;;;;;;;14.20;7.80;;;;;;;28.04;30.96;100621.84;87182;273;137332;-75
2024/04/10 06:06:56;;;;;;;12.60;7.70;;;;;;;28.04;30.79;100625.52;87355;269;26197;-76
2024/04/10 06:08:57;;;;;;;11.60;6.00;;;;;;;28.04;30.72;100625.23;87144;269;137241;-77
2024/04/10 06:10:57;;;;;;;10.70;6.10;;;;;;;28.07;30.87;100628.64;87236;278;25293;-73
2024/04/10 06:12:58;;;;;;;12.50;6.30;;;;;;;28.12;30.82;100629.61;87148;271;136524;-75
2024/04/10 06:15:00;;;;;;;9.90;6.80;;;;;;;28.18;30.67;100632.16;87248;273;24145;-71
2024/04/10 06:17:00;;;;;;;10.30;6.30;;;;;;;28.21;30.50;100632.16;87237;268;136405;-74
2024/04/10 06:19:02;;;;;;;9.40;5.80;;;;;;;28.26;30.37;100631.63;87618;268;22674;-72
2024/04/10 06:21:03;;;;;;;14.50;6.50;;;;;;;28.20;29.88;100632.59;87219;269;135839;-71
2024/04/10 06:23:04;;;;;;;6.10;5.40;;;;;;;28.05;30.65;100637.17;87464;273;25198;-72
2024/04/10 06:25:05;;;;;;;12.80;4.70;;;;;;;27.97;31.15;100634.19;87175;273;136312;-72
2024/04/10 06:27:06;;;;;;;12.90;4.60;;;;;;;27.97;30.77;100634.18;87266;266;22727;-70
2024/04/10 06:29:07;;;;;;;6.50;5.00;;;;;;;27.92;30.18;100629.42;87100;269;136350;-72
2024/04/10 06:31:09;;;;;;;5.40;4.70;;;;;;;27.69;30.12;100625.64;87268;269;28367;-75
2024/04/10 06:33:14;;;;;;;7.60;5.10;;;;;;;27.36;30.26;100624.61;87429;277;138403;-70
2024/04/10 06:35:14;;;;;;;7.80;3.90;;;;;;;27.04;30.66;100624.98;87219;273;23764;-72
2024/04/10 06:37:15;;;;;;;5.00;3.50;;;;;;;26.88;30.51;100630.77;87201;268;137893;-71
2024/04/10 06:39:16;;;;;;;6.20;3.40;;;;;;;26.72;30.85;100631.14;87242;268;22548;-73
2024/04/10 06:41:16;;;;;;;10.60;3.80;;;;;;;26.57;31.27;100630.89;87136;269;135926;-75
2024/04/10 06:43:17;;;;;;;3.90;3.40;;;;;;;26.46;31.37;100633.94;87298;273;25121;-74
2024/04/10 06:45:18;;;;;;;6.00;4.00;;;;;;;26.26;31.31;100633.36;87146;273;137375;-71
2024/04/10 06:47:18;;;;;;;4.40;2.70;;;;;;;26.07;31.50;100633.79;87273;277;22664;-71
2024/04/10 06:49:20;;;;;;;3.80;2.60;;;;;;;25.95;31.82;100635.18;87223;277;136877;-69
2024/04/10 06:51:21;;;;;;;9.10;2.50;;;;;;;26.00;31.72;100633.89;87317;269;25210;-69
2024/04/10 06:53:23;;;;;;;5.90;2.60;;;;;;;26.05;31.59;100629.31;87186;273;136353;-73
2024/04/10 06:55:24;;;;;;;6.00;2.50;;;;;;;25.97;31.51;100630.62;87374;273;24014;-72
2024/04/10 06:57:24;;;;;;;8.70;2.60;;;;;;;25.78;31.84;100630.62;87238;265;135949;-73
2024/04/10 06:59:25;;;;;;;6.50;2.40;;;;;;;25.54;32.07;100633.98;87281;269;22552;-71
2024/04/10 07:01:26;;;;;;;4.40;2.60;;;;;;;25.29;32.24;100640.10;86571;273;831862;-72
2024/04/10 07:03:27;;;;;;;4.70;2.20;;;;;;;25.03;32.42;100641.16;87260;273;22645;-74
2024/04/10 07:05:28;;;;;;;9.30;2.20;;;;;;;24.72;33.07;100645.48;87235;273;136582;-76
2024/04/10 07:07:29;;;;;;;3.60;2.60;;;;;;;24.39;33.61;100644.19;87351;269;24404;-74
2024/04/10 07:09:30;;;;;;;6.00;1.70;;;;;;;24.21;34.33;100646.30;87213;269;136378;-76
2024/04/10 07:11:31;;;;;;;9.30;2.20;;;;;;;24.10;34.33;100645.77;87331;277;22560;-78
2024/04/10 07:13:32;;;;;;;4.00;2.40;;;;;;;23.97;34.62;100647.11;87235;269;135614;-74
2024/04/10 07:15:33;;;;;;;3.80;2.10;;;;;;;23.89;34.90;100648.67;87392;269;25291;-72
2024/04/10 07:17:34;;;;;;;3.60;2.50;;;;;;;23.90;35.19;100654.34;87490;274;136352;-72
2024/04/10 07:19:34;;;;;;;2.90;2.00;;;;;;;23.90;35.11;100654.67;87225;273;22565;-74
2024/04/10 07:21:35;;;;;;;6.30;2.50;;;;;;;23.93;35.38;100656.84;87173;273;136183;-75
2024/04/10 07:23:39;;;;;;;7.30;2.20;;;;;;;23.94;35.36;100658.16;87573;266;22654;-74
2024/04/10 07:25:40;;;;;;;4.80;2.80;;;;;;;23.90;35.21;100656.95;87199;272;136248;-73
2024/04/10 07:27:41;;;;;;;3.10;2.00;;;;;;;23.89;35.38;100657.23;87236;274;22572;-72
2024/04/10 07:29:44;;;;;;;10.30;2.10;;;;;;;23.88;34.98;100656.58;87162;273;136557;-75
2024/04/10 07:31:45;;;;;;;3.90;2.20;;;;;;;23.80;35.05;100658.50;87145;272;24113;-73
2024/04/10 07:33:48;;;;;;;18.70;2.20;;;;;;;23.71;35.36;100658.23;87259;267;137313;-77
2024/04/10 07:35:49;;;;;;;2.60;1.90;;;;;;;23.69;35.44;100657.15;87646;266;25108;-79
2024/04/10 07:37:49;;;;;;;6.50;2.40;;;;;;;23.76;35.49;100658.25;87234;269;137811;-74
2024/04/10 07:39:50;;;;;;;2.00;1.60;;;;;;;23.81;35.46;100660.69;87714;269;22555;-75
2024/04/10 07:41:51;;;;;;;2.90;1.80;;;;;;;23.86;35.53;100659.62;87314;269;137247;-75
2024/04/10 07:43:52;;;;;;;4.70;2.00;;;;;;;23.96;35.57;100663.33;87412;269;24184;-76
2024/04/10 07:45:52;;;;;;;4.40;1.60;;;;;;;24.07;35.39;100666.24;87223;266;135958;-75
2024/04/10 07:47:53;;;;;;;8.80;1.60;;;;;;;24.20;35.24;100668.00;87337;277;25132;-73
2024/04/10 07:49:54;;;;;;;3.40;1.10;;;;;;;24.29;34.34;100669.75;87203;267;136086;-68
2024/04/10 07:51:55;;;;;;;5.00;1.40;;;;;;;24.35;33.60;100671.98;87305;269;22541;-79
2024/04/10 07:53:56;;;;;;;3.80;1.20;;;;;;;24.38;33.54;100670.40;87713;265;137233;-78
2024/04/10 07:55:56;;;;;;;4.80;1.40;;;;;;;24.39;33.48;100668.92;87407;271;22550;-79
2024/04/10 07:57:57;;;;;;;3.00;2.10;;;;;;;24.38;33.25;100668.92;87864;273;135449;-78
2024/04/10 07:59:57;;;;;;;3.60;1.30;;;;;;;24.36;32.87;100667.23;87427;275;24020;-72
2024/04/10 08:01:58;;;;;;;2.70;1.50;;;;;;;24.33;32.74;100669.69;88048;265;135492;-73
2024/04/10 08:04:02;;;;;;;4.70;1.50;;;;;;;24.33;32.90;100667.40;87827;273;22903;-77
2024/04/10 08:06:05;;;;;;;4.00;1.90;;;;;;;24.37;33.19;100664.84;87773;265;22557;-75
2024/04/10 08:08:06;;;;;;;0.90;0.70;;;;;;;24.43;33.01;100670.13;87335;269;136313;-77
2024/04/10 08:10:08;;;;;;;2.50;1.50;;;;;;;24.41;32.42;100666.04;87700;267;25244;-78
2024/04/10 08:12:09;;;;;;;5.00;2.10;;;;;;;24.35;32.51;100661.79;87339;268;137433;-76
2024/04/10 08:14:10;;;;;;;2.60;1.00;;;;;;;24.31;33.05;100660.96;87395;272;22552;-73
2024/04/10 08:16:11;;;;;;;4.00;1.30;;;;;;;24.30;33.04;100661.63;87364;273;136539;-82
2024/04/10 08:18:13;;;;;;;2.10;1.10;;;;;;;24.31;32.45;100667.61;87534;276;22596;-76
2024/04/10 08:20:14;;;;;;;2.90;1.50;;;;;;;24.29;32.51;100663.64;87295;269;135721;-76
2024/04/10 08:22:15;;;;;;;6.70;2.10;;;;;;;24.29;32.83;100660.21;87621;279;24010;-77
2024/04/10 08:24:16;;;;;;;4.30;2.30;;;;;;;24.34;32.89;100662.11;87487;274;136342;-74
2024/04/10 08:26:18;;;;;;;7.30;3.20;;;;;;;24.41;33.30;100658.84;87313;265;22613;-77
2024/04/10 08:28:20;;;;;;;5.10;2.70;;;;;;;24.47;33.21;100659.39;87182;270;136837;-75
2024/04/10 08:30:21;;;;;;;6.70;3.30;;;;;;;24.48;33.06;100660.69;87327;277;23779;-75
2024/04/10 08:32:22;;;;;;;4.90;2.80;;;;;;;24.51;33.20;100659.06;87274;262;136095;-76
2024/04/10 08:34:23;;;;;;;7.00;3.00;;;;;;;24.54;32.62;100659.79;87410;266;24116;-73
2024/04/10 08:36:24;;;;;;;3.30;2.50;;;;;;;24.55;32.26;100660.99;87280;273;136622;-76
2024/04/10 08:38:26;;;;;;;5.00;2.30;;;;;;;24.52;32.48;100663.98;87388;271;23662;-75
2024/04/10 08:40:28;;;;;;;2.30;1.70;;;;;;;24.53;32.50;100656.58;87342;270;136287;-71
2024/04/10 08:42:30;;;;;;;3.70;1.60;;;;;;;24.56;32.10;100656.84;87311;269;23993;-76
2024/04/10 08:44:31;;;;;;;6.50;1.60;;;;;;;24.60;32.05;100658.80;87312;265;136340;-75
2024/04/10 08:46:34;;;;;;;6.20;1.60;;;;;;;24.63;32.10;100653.79;87393;270;25441;-72
2024/04/10 08:48:39;;;;;;;4.00;1.70;;;;;;;24.62;31.94;100654.55;87551;277;136577;-76
2024/04/10 08:50:42;;;;;;;10.10;2.00;;;;;;;24.62;32.01;100651.28;87475;273;22564;-76
2024/04/10 08:52:44;;;;;;;4.10;2.00;;;;;;;24.61;31.91;100651.66;87469;271;136249;-75
2024/04/10 08:54:46;;;;;;;2.50;1.70;;;;;;;24.56;31.88;100654.27;87366;269;24142;-76
2024/04/10 08:56:49;;;;;;;3.40;1.10;;;;;;;24.48;32.71;100651.09;87265;273;136357;-76
2024/04/10 08:58:53;;;;;;;6.80;2.10;;;;;;;24.46;32.67;100657.37;87490;270;24086;-76
2024/04/10 09:00:53;;;;;;;3.00;2.20;;;;;;;24.45;32.83;100660.27;87535;270;135864;-77
2024/04/10 09:02:55;;;;;;;8.30;2.20;;;;;;;24.44;33.07;100660.58;87709;269;22639;-75
2024/04/10 09:04:58;;;;;;;4.60;1.30;;;;;;;24.45;32.95;100659.88;87377;269;135880;-77
2024/04/10 09:07:00;;;;;;;3.20;1.40;;;;;;;24.49;32.96;100662.22;87364;266;22550;-75
2024/04/10 09:09:06;;;;;;;3.20;1.40;;;;;;;24.50;32.82;100662.49;87375;273;137744;-76
2024/04/10 09:11:07;;;;;;;2.30;1.80;;;;;;;24.47;32.95;100659.32;87339;265;22555;-74
2024/04/10 09:13:09;;;;;;;1.60;0.90;;;;;;;24.47;33.08;100661.95;87238;266;136393;-79
2024/04/10 09:15:11;;;;;;;2.30;1.00;;;;;;;24.50;33.02;100660.76;87524;268;24023;-79
2024/04/10 09:17:16;;;;;;;3.80;1.50;;;;;;;24.55;32.78;100664.31;87267;264;135705;-72
2024/04/10 09:19:17;;;;;;;4.00;1.20;;;;;;;24.57;32.80;100663.55;87572;269;22575;-77
2024/04/10 09:21:18;;;;;;;1.00;1.00;;;;;;;24.60;32.86;100657.44;87340;270;136438;-78
2024/04/10 09:23:19;;;;;;;2.70;1.30;;;;;;;24.65;32.74;100657.55;87443;272;22595;-76
2024/04/10 09:25:20;;;;;;;2.60;0.80;;;;;;;24.66;32.75;100650.71;87522;276;137546;-76
2024/04/10 09:27:21;;;;;;;8.40;1.50;;;;;;;24.64;33.09;100652.41;87377;273;22559;-75
2024/04/10 09:29:28;;;;;;;2.30;1.30;;;;;;;24.66;33.10;100655.59;87182;261;136348;-77